sensor_id;sensor_type;location;lat;lon;timestamp;P1;durP1;ratioP1;P2;durP2;ratioP2
65896;SDS011;52677;50.898;10.854;2024-03-08T00:01:50;27.95;;;14.57;;
65896;SDS011;52677;50.898;10.854;2024-03-08T00:03:50;28.45;;;14.95;;
65896;SDS011;52677;50.898;10.854;2024-03-08T00:05:52;28.35;;;14.02;;
65896;SDS011;52677;50.898;10.854;2024-03-08T00:07:52;27.23;;;13.98;;
65896;SDS011;52677;50.898;10.854;2024-03-08T00:09:53;28.42;;;13.50;;
65896;SDS011;52677;50.898;10.854;2024-03-08T00:11:53;30.20;;;15.20;;
65896;SDS011;52677;50.898;10.854;2024-03-08T00:13:53;26.00;;;13.38;;
65896;SDS011;52677;50.898;10.854;2024-03-08T00:15:54;28.38;;;13.75;;
65896;SDS011;52677;50.898;10.854;2024-03-08T00:17:54;28.65;;;14.82;;
65896;SDS011;52677;50.898;10.854;2024-03-08T00:19:55;22.70;;;13.00;;
65896;SDS011;52677;50.898;10.854;2024-03-08T00:21:55;27.35;;;13.98;;
65896;SDS011;52677;50.898;10.854;2024-03-08T00:23:55;32.33;;;14.10;;
65896;SDS011;52677;50.898;10.854;2024-03-08T00:25:55;25.55;;;13.77;;
65896;SDS011;52677;50.898;10.854;2024-03-08T00:27:56;26.85;;;14.23;;
65896;SDS011;52677;50.898;10.854;2024-03-08T00:29:59;26.05;;;13.35;;
65896;SDS011;52677;50.898;10.854;2024-03-08T00:32:00;25.63;;;13.25;;
65896;SDS011;52677;50.898;10.854;2024-03-08T00:34:01;27.90;;;14.60;;
65896;SDS011;52677;50.898;10.854;2024-03-08T00:36:01;29.95;;;13.90;;
65896;SDS011;52677;50.898;10.854;2024-03-08T00:38:01;24.13;;;13.52;;
65896;SDS011;52677;50.898;10.854;2024-03-08T00:40:02;27.83;;;15.20;;
65896;SDS011;52677;50.898;10.854;2024-03-08T00:42:03;26.27;;;14.75;;
65896;SDS011;52677;50.898;10.854;2024-03-08T00:44:03;30.13;;;14.77;;
65896;SDS011;52677;50.898;10.854;2024-03-08T00:46:04;28.35;;;15.20;;
65896;SDS011;52677;50.898;10.854;2024-03-08T00:48:05;27.98;;;15.00;;
65896;SDS011;52677;50.898;10.854;2024-03-08T00:50:05;27.45;;;14.82;;
65896;SDS011;52677;50.898;10.854;2024-03-08T00:52:06;31.73;;;16.20;;
65896;SDS011;52677;50.898;10.854;2024-03-08T00:54:10;31.40;;;15.85;;
65896;SDS011;52677;50.898;10.854;2024-03-08T00:56:11;28.40;;;15.85;;
65896;SDS011;52677;50.898;10.854;2024-03-08T00:58:12;26.45;;;14.07;;
65896;SDS011;52677;50.898;10.854;2024-03-08T01:00:13;26.10;;;14.55;;
65896;SDS011;52677;50.898;10.854;2024-03-08T01:02:13;35.33;;;16.48;;
65896;SDS011;52677;50.898;10.854;2024-03-08T01:04:14;27.58;;;14.75;;
65896;SDS011;52677;50.898;10.854;2024-03-08T01:06:14;27.38;;;14.52;;
65896;SDS011;52677;50.898;10.854;2024-03-08T01:08:14;28.58;;;15.25;;
65896;SDS011;52677;50.898;10.854;2024-03-08T01:10:15;28.65;;;14.45;;
65896;SDS011;52677;50.898;10.854;2024-03-08T01:12:15;27.60;;;15.05;;
65896;SDS011;52677;50.898;10.854;2024-03-08T01:14:16;27.90;;;15.45;;
65896;SDS011;52677;50.898;10.854;2024-03-08T01:16:16;28.90;;;15.40;;
65896;SDS011;52677;50.898;10.854;2024-03-08T01:18:17;29.75;;;14.98;;
65896;SDS011;52677;50.898;10.854;2024-03-08T01:20:17;29.10;;;15.75;;
65896;SDS011;52677;50.898;10.854;2024-03-08T01:22:17;33.85;;;16.13;;
65896;SDS011;52677;50.898;10.854;2024-03-08T01:24:18;29.48;;;15.20;;
65896;SDS011;52677;50.898;10.854;2024-03-08T01:26:18;27.33;;;14.50;;
65896;SDS011;52677;50.898;10.854;2024-03-08T01:28:18;25.75;;;13.88;;
65896;SDS011;52677;50.898;10.854;2024-03-08T01:30:19;25.50;;;13.90;;
65896;SDS011;52677;50.898;10.854;2024-03-08T01:32:19;29.35;;;14.68;;
65896;SDS011;52677;50.898;10.854;2024-03-08T01:34:20;24.77;;;13.75;;
65896;SDS011;52677;50.898;10.854;2024-03-08T01:36:20;30.67;;;14.73;;
65896;SDS011;52677;50.898;10.854;2024-03-08T01:38:21;26.30;;;14.23;;
65896;SDS011;52677;50.898;10.854;2024-03-08T01:40:21;29.33;;;13.30;;
65896;SDS011;52677;50.898;10.854;2024-03-08T01:42:22;26.73;;;14.80;;
65896;SDS011;52677;50.898;10.854;2024-03-08T01:44:22;28.58;;;15.45;;
65896;SDS011;52677;50.898;10.854;2024-03-08T01:46:24;26.77;;;13.85;;
65896;SDS011;52677;50.898;10.854;2024-03-08T01:48:24;28.00;;;14.60;;
65896;SDS011;52677;50.898;10.854;2024-03-08T01:50:25;30.15;;;15.40;;
65896;SDS011;52677;50.898;10.854;2024-03-08T01:52:25;27.95;;;14.23;;
65896;SDS011;52677;50.898;10.854;2024-03-08T01:54:26;32.45;;;14.88;;
65896;SDS011;52677;50.898;10.854;2024-03-08T01:56:27;30.23;;;14.10;;
65896;SDS011;52677;50.898;10.854;2024-03-08T01:58:27;25.75;;;13.70;;
65896;SDS011;52677;50.898;10.854;2024-03-08T02:00:28;27.20;;;12.98;;
65896;SDS011;52677;50.898;10.854;2024-03-08T02:02:30;27.23;;;12.95;;
65896;SDS011;52677;50.898;10.854;2024-03-08T02:04:32;25.70;;;13.68;;
65896;SDS011;52677;50.898;10.854;2024-03-08T02:06:32;26.38;;;13.80;;
65896;SDS011;52677;50.898;10.854;2024-03-08T02:08:33;24.38;;;13.20;;
65896;SDS011;52677;50.898;10.854;2024-03-08T02:10:34;24.00;;;12.63;;
65896;SDS011;52677;50.898;10.854;2024-03-08T02:12:35;29.40;;;14.60;;
65896;SDS011;52677;50.898;10.854;2024-03-08T02:14:35;25.80;;;13.40;;
65896;SDS011;52677;50.898;10.854;2024-03-08T02:16:36;26.73;;;13.02;;
65896;SDS011;52677;50.898;10.854;2024-03-08T02:18:37;28.55;;;14.65;;
65896;SDS011;52677;50.898;10.854;2024-03-08T02:20:39;25.42;;;14.07;;
65896;SDS011;52677;50.898;10.854;2024-03-08T02:22:39;27.90;;;13.48;;
65896;SDS011;52677;50.898;10.854;2024-03-08T02:24:40;30.70;;;15.48;;
65896;SDS011;52677;50.898;10.854;2024-03-08T02:26:41;32.55;;;15.95;;
65896;SDS011;52677;50.898;10.854;2024-03-08T02:28:42;34.13;;;15.27;;
65896;SDS011;52677;50.898;10.854;2024-03-08T02:30:44;28.60;;;14.57;;
65896;SDS011;52677;50.898;10.854;2024-03-08T02:32:48;30.92;;;15.52;;
65896;SDS011;52677;50.898;10.854;2024-03-08T02:34:48;35.97;;;16.60;;
65896;SDS011;52677;50.898;10.854;2024-03-08T02:36:49;29.67;;;14.05;;
65896;SDS011;52677;50.898;10.854;2024-03-08T02:38:49;28.65;;;14.73;;
65896;SDS011;52677;50.898;10.854;2024-03-08T02:40:50;33.72;;;15.40;;
65896;SDS011;52677;50.898;10.854;2024-03-08T02:42:52;29.08;;;14.82;;
65896;SDS011;52677;50.898;10.854;2024-03-08T02:44:52;30.23;;;14.93;;
65896;SDS011;52677;50.898;10.854;2024-03-08T02:46:53;40.67;;;17.40;;
65896;SDS011;52677;50.898;10.854;2024-03-08T02:48:55;32.88;;;16.15;;
65896;SDS011;52677;50.898;10.854;2024-03-08T02:50:55;32.55;;;15.20;;
65896;SDS011;52677;50.898;10.854;2024-03-08T02:52:55;28.67;;;15.07;;
65896;SDS011;52677;50.898;10.854;2024-03-08T02:54:56;30.73;;;15.43;;
65896;SDS011;52677;50.898;10.854;2024-03-08T02:56:56;31.35;;;16.17;;
65896;SDS011;52677;50.898;10.854;2024-03-08T02:58:56;32.90;;;15.65;;
65896;SDS011;52677;50.898;10.854;2024-03-08T03:00:57;33.28;;;15.05;;
65896;SDS011;52677;50.898;10.854;2024-03-08T03:02:57;28.83;;;15.00;;
65896;SDS011;52677;50.898;10.854;2024-03-08T03:04:57;31.85;;;15.30;;
65896;SDS011;52677;50.898;10.854;2024-03-08T03:06:58;28.10;;;14.95;;
65896;SDS011;52677;50.898;10.854;2024-03-08T03:08:58;29.75;;;15.65;;
65896;SDS011;52677;50.898;10.854;2024-03-08T03:10:59;29.05;;;13.68;;
65896;SDS011;52677;50.898;10.854;2024-03-08T03:12:59;31.45;;;16.15;;
65896;SDS011;52677;50.898;10.854;2024-03-08T03:14:59;27.13;;;14.13;;
65896;SDS011;52677;50.898;10.854;2024-03-08T03:17:00;26.02;;;14.73;;
65896;SDS011;52677;50.898;10.854;2024-03-08T03:19:00;28.45;;;14.82;;
65896;SDS011;52677;50.898;10.854;2024-03-08T03:21:01;29.60;;;15.82;;
65896;SDS011;52677;50.898;10.854;2024-03-08T03:23:07;29.42;;;15.55;;
65896;SDS011;52677;50.898;10.854;2024-03-08T03:25:08;25.65;;;14.20;;
65896;SDS011;52677;50.898;10.854;2024-03-08T03:27:09;24.58;;;13.57;;
65896;SDS011;52677;50.898;10.854;2024-03-08T03:29:12;27.40;;;14.43;;
65896;SDS011;52677;50.898;10.854;2024-03-08T03:31:13;26.50;;;16.08;;
65896;SDS011;52677;50.898;10.854;2024-03-08T03:33:14;28.13;;;13.88;;
65896;SDS011;52677;50.898;10.854;2024-03-08T03:35:20;32.85;;;15.52;;
65896;SDS011;52677;50.898;10.854;2024-03-08T03:37:21;26.00;;;13.48;;
65896;SDS011;52677;50.898;10.854;2024-03-08T03:39:21;28.38;;;14.80;;
65896;SDS011;52677;50.898;10.854;2024-03-08T03:41:22;28.13;;;14.27;;
65896;SDS011;52677;50.898;10.854;2024-03-08T03:43:23;27.95;;;14.60;;
65896;SDS011;52677;50.898;10.854;2024-03-08T03:45:24;30.10;;;14.35;;
65896;SDS011;52677;50.898;10.854;2024-03-08T03:47:24;32.67;;;15.30;;
65896;SDS011;52677;50.898;10.854;2024-03-08T03:49:25;34.08;;;15.77;;
65896;SDS011;52677;50.898;10.854;2024-03-08T03:51:25;23.88;;;12.68;;
65896;SDS011;52677;50.898;10.854;2024-03-08T03:53:26;28.55;;;14.10;;
65896;SDS011;52677;50.898;10.854;2024-03-08T03:55:27;26.05;;;13.48;;
65896;SDS011;52677;50.898;10.854;2024-03-08T03:57:28;23.13;;;12.73;;
65896;SDS011;52677;50.898;10.854;2024-03-08T03:59:29;26.45;;;12.75;;
65896;SDS011;52677;50.898;10.854;2024-03-08T04:01:29;27.90;;;12.88;;
65896;SDS011;52677;50.898;10.854;2024-03-08T04:03:29;25.30;;;13.63;;
65896;SDS011;52677;50.898;10.854;2024-03-08T04:05:30;26.50;;;13.77;;
65896;SDS011;52677;50.898;10.854;2024-03-08T04:07:31;28.35;;;13.65;;
65896;SDS011;52677;50.898;10.854;2024-03-08T04:09:31;25.23;;;13.30;;
65896;SDS011;52677;50.898;10.854;2024-03-08T04:11:31;26.80;;;13.73;;
65896;SDS011;52677;50.898;10.854;2024-03-08T04:13:32;31.08;;;14.73;;
65896;SDS011;52677;50.898;10.854;2024-03-08T04:15:32;29.65;;;15.20;;
65896;SDS011;52677;50.898;10.854;2024-03-08T04:17:34;27.27;;;13.52;;
65896;SDS011;52677;50.898;10.854;2024-03-08T04:19:38;30.88;;;14.02;;
65896;SDS011;52677;50.898;10.854;2024-03-08T04:21:39;34.63;;;16.02;;
65896;SDS011;52677;50.898;10.854;2024-03-08T04:23:39;30.85;;;15.70;;
65896;SDS011;52677;50.898;10.854;2024-03-08T04:25:40;29.45;;;14.48;;
65896;SDS011;52677;50.898;10.854;2024-03-08T04:27:42;32.88;;;16.90;;
65896;SDS011;52677;50.898;10.854;2024-03-08T04:29:42;27.10;;;14.45;;
65896;SDS011;52677;50.898;10.854;2024-03-08T04:31:43;31.13;;;15.27;;
65896;SDS011;52677;50.898;10.854;2024-03-08T04:33:43;29.92;;;15.27;;
65896;SDS011;52677;50.898;10.854;2024-03-08T04:35:45;35.85;;;14.93;;
65896;SDS011;52677;50.898;10.854;2024-03-08T04:37:46;29.38;;;14.07;;
65896;SDS011;52677;50.898;10.854;2024-03-08T04:39:46;32.03;;;14.95;;
65896;SDS011;52677;50.898;10.854;2024-03-08T04:41:46;28.38;;;14.30;;
65896;SDS011;52677;50.898;10.854;2024-03-08T04:43:47;32.83;;;15.63;;
65896;SDS011;52677;50.898;10.854;2024-03-08T04:45:47;28.02;;;14.05;;
65896;SDS011;52677;50.898;10.854;2024-03-08T04:47:48;33.60;;;15.02;;
65896;SDS011;52677;50.898;10.854;2024-03-08T04:49:48;33.15;;;15.48;;
65896;SDS011;52677;50.898;10.854;2024-03-08T04:51:50;35.00;;;15.70;;
65896;SDS011;52677;50.898;10.854;2024-03-08T04:53:50;28.77;;;13.75;;
65896;SDS011;52677;50.898;10.854;2024-03-08T04:55:50;31.73;;;15.90;;
65896;SDS011;52677;50.898;10.854;2024-03-08T04:57:51;31.63;;;14.32;;
65896;SDS011;52677;50.898;10.854;2024-03-08T04:59:51;33.45;;;14.95;;
65896;SDS011;52677;50.898;10.854;2024-03-08T05:01:51;27.17;;;14.40;;
65896;SDS011;52677;50.898;10.854;2024-03-08T05:03:52;29.27;;;14.85;;
65896;SDS011;52677;50.898;10.854;2024-03-08T05:05:55;32.83;;;15.60;;
65896;SDS011;52677;50.898;10.854;2024-03-08T05:07:56;26.35;;;13.68;;
65896;SDS011;52677;50.898;10.854;2024-03-08T05:09:56;33.42;;;15.18;;
65896;SDS011;52677;50.898;10.854;2024-03-08T05:11:56;29.63;;;15.25;;
65896;SDS011;52677;50.898;10.854;2024-03-08T05:13:58;30.80;;;15.05;;
65896;SDS011;52677;50.898;10.854;2024-03-08T05:15:59;31.10;;;14.27;;
65896;SDS011;52677;50.898;10.854;2024-03-08T05:17:59;31.23;;;15.93;;
65896;SDS011;52677;50.898;10.854;2024-03-08T05:20:00;30.40;;;15.13;;
65896;SDS011;52677;50.898;10.854;2024-03-08T05:22:00;38.67;;;15.18;;
65896;SDS011;52677;50.898;10.854;2024-03-08T05:24:00;32.00;;;13.88;;
65896;SDS011;52677;50.898;10.854;2024-03-08T05:26:01;30.13;;;14.27;;
65896;SDS011;52677;50.898;10.854;2024-03-08T05:28:01;30.30;;;13.60;;
65896;SDS011;52677;50.898;10.854;2024-03-08T05:30:02;26.23;;;13.70;;
65896;SDS011;52677;50.898;10.854;2024-03-08T05:32:04;32.53;;;15.45;;
65896;SDS011;52677;50.898;10.854;2024-03-08T05:34:04;31.00;;;14.77;;
65896;SDS011;52677;50.898;10.854;2024-03-08T05:36:05;31.95;;;14.02;;
65896;SDS011;52677;50.898;10.854;2024-03-08T05:38:06;30.38;;;14.52;;
65896;SDS011;52677;50.898;10.854;2024-03-08T05:40:07;29.88;;;15.07;;
65896;SDS011;52677;50.898;10.854;2024-03-08T05:42:09;31.88;;;14.32;;
65896;SDS011;52677;50.898;10.854;2024-03-08T05:44:10;30.67;;;15.15;;
65896;SDS011;52677;50.898;10.854;2024-03-08T05:46:10;34.20;;;15.73;;
65896;SDS011;52677;50.898;10.854;2024-03-08T05:48:13;32.17;;;15.90;;
65896;SDS011;52677;50.898;10.854;2024-03-08T05:50:14;34.80;;;15.82;;
65896;SDS011;52677;50.898;10.854;2024-03-08T05:52:15;39.08;;;16.92;;
65896;SDS011;52677;50.898;10.854;2024-03-08T05:54:16;31.00;;;15.68;;
65896;SDS011;52677;50.898;10.854;2024-03-08T05:56:16;37.33;;;16.15;;
65896;SDS011;52677;50.898;10.854;2024-03-08T05:58:16;31.27;;;15.20;;
65896;SDS011;52677;50.898;10.854;2024-03-08T06:00:17;31.98;;;16.40;;
65896;SDS011;52677;50.898;10.854;2024-03-08T06:02:19;37.83;;;16.10;;
65896;SDS011;52677;50.898;10.854;2024-03-08T06:04:19;33.05;;;16.95;;
65896;SDS011;52677;50.898;10.854;2024-03-08T06:06:19;29.17;;;15.82;;
65896;SDS011;52677;50.898;10.854;2024-03-08T06:08:21;35.97;;;16.58;;
65896;SDS011;52677;50.898;10.854;2024-03-08T06:10:22;41.47;;;18.45;;
65896;SDS011;52677;50.898;10.854;2024-03-08T06:12:22;36.60;;;16.55;;
65896;SDS011;52677;50.898;10.854;2024-03-08T06:14:24;34.45;;;15.52;;
65896;SDS011;52677;50.898;10.854;2024-03-08T06:16:24;37.22;;;16.98;;
65896;SDS011;52677;50.898;10.854;2024-03-08T06:18:24;38.00;;;16.92;;
65896;SDS011;52677;50.898;10.854;2024-03-08T06:20:25;37.75;;;16.45;;
65896;SDS011;52677;50.898;10.854;2024-03-08T06:22:26;39.60;;;18.00;;
65896;SDS011;52677;50.898;10.854;2024-03-08T06:24:26;40.97;;;17.75;;
65896;SDS011;52677;50.898;10.854;2024-03-08T06:26:27;35.30;;;17.02;;
65896;SDS011;52677;50.898;10.854;2024-03-08T06:28:28;37.15;;;16.98;;
65896;SDS011;52677;50.898;10.854;2024-03-08T06:30:28;36.35;;;17.95;;
65896;SDS011;52677;50.898;10.854;2024-03-08T06:32:29;40.38;;;18.23;;
65896;SDS011;52677;50.898;10.854;2024-03-08T06:34:29;39.88;;;17.73;;
65896;SDS011;52677;50.898;10.854;2024-03-08T06:36:29;36.22;;;17.70;;
65896;SDS011;52677;50.898;10.854;2024-03-08T06:38:30;34.83;;;17.80;;
65896;SDS011;52677;50.898;10.854;2024-03-08T06:40:30;37.13;;;18.20;;
65896;SDS011;52677;50.898;10.854;2024-03-08T06:42:30;39.83;;;18.95;;
65896;SDS011;52677;50.898;10.854;2024-03-08T06:44:35;39.42;;;18.30;;
65896;SDS011;52677;50.898;10.854;2024-03-08T06:46:35;40.35;;;19.40;;
65896;SDS011;52677;50.898;10.854;2024-03-08T06:48:36;36.78;;;18.98;;
65896;SDS011;52677;50.898;10.854;2024-03-08T06:50:37;43.35;;;19.92;;
65896;SDS011;52677;50.898;10.854;2024-03-08T06:52:37;41.75;;;20.67;;
65896;SDS011;52677;50.898;10.854;2024-03-08T06:54:38;40.80;;;19.48;;
65896;SDS011;52677;50.898;10.854;2024-03-08T06:56:38;44.28;;;20.38;;
65896;SDS011;52677;50.898;10.854;2024-03-08T06:58:39;45.58;;;20.02;;
65896;SDS011;52677;50.898;10.854;2024-03-08T07:00:40;39.90;;;19.95;;
65896;SDS011;52677;50.898;10.854;2024-03-08T07:02:40;42.70;;;17.70;;
65896;SDS011;52677;50.898;10.854;2024-03-08T07:04:41;42.17;;;19.50;;
65896;SDS011;52677;50.898;10.854;2024-03-08T07:06:42;42.85;;;20.10;;
65896;SDS011;52677;50.898;10.854;2024-03-08T07:08:42;41.30;;;19.38;;
65896;SDS011;52677;50.898;10.854;2024-03-08T07:10:43;46.47;;;20.02;;
65896;SDS011;52677;50.898;10.854;2024-03-08T07:12:45;44.20;;;20.58;;
65896;SDS011;52677;50.898;10.854;2024-03-08T07:14:46;40.00;;;19.35;;
65896;SDS011;52677;50.898;10.854;2024-03-08T07:16:46;40.88;;;19.60;;
65896;SDS011;52677;50.898;10.854;2024-03-08T07:18:47;43.58;;;20.08;;
65896;SDS011;52677;50.898;10.854;2024-03-08T07:20:47;48.40;;;22.70;;
65896;SDS011;52677;50.898;10.854;2024-03-08T07:22:49;40.13;;;20.08;;
65896;SDS011;52677;50.898;10.854;2024-03-08T07:24:52;55.15;;;26.33;;
65896;SDS011;52677;50.898;10.854;2024-03-08T07:27:10;52.35;;;27.30;;
65896;SDS011;52677;50.898;10.854;2024-03-08T07:29:12;47.13;;;23.25;;
65896;SDS011;52677;50.898;10.854;2024-03-08T07:31:12;44.28;;;19.17;;
65896;SDS011;52677;50.898;10.854;2024-03-08T07:33:15;47.00;;;22.45;;
65896;SDS011;52677;50.898;10.854;2024-03-08T07:35:15;44.05;;;21.33;;
65896;SDS011;52677;50.898;10.854;2024-03-08T07:37:18;50.00;;;20.23;;
65896;SDS011;52677;50.898;10.854;2024-03-08T07:39:20;43.13;;;21.43;;
65896;SDS011;52677;50.898;10.854;2024-03-08T07:41:23;40.72;;;21.10;;
65896;SDS011;52677;50.898;10.854;2024-03-08T07:43:23;38.58;;;20.08;;
65896;SDS011;52677;50.898;10.854;2024-03-08T07:45:24;41.40;;;19.88;;
65896;SDS011;52677;50.898;10.854;2024-03-08T07:47:25;43.10;;;21.00;;
65896;SDS011;52677;50.898;10.854;2024-03-08T07:49:26;41.38;;;20.83;;
65896;SDS011;52677;50.898;10.854;2024-03-08T07:51:26;44.05;;;21.50;;
65896;SDS011;52677;50.898;10.854;2024-03-08T07:53:26;42.67;;;20.45;;
65896;SDS011;52677;50.898;10.854;2024-03-08T07:55:27;39.47;;;19.25;;
65896;SDS011;52677;50.898;10.854;2024-03-08T07:57:29;41.87;;;18.77;;
65896;SDS011;52677;50.898;10.854;2024-03-08T07:59:29;41.50;;;19.00;;
65896;SDS011;52677;50.898;10.854;2024-03-08T08:01:30;39.83;;;19.80;;
65896;SDS011;52677;50.898;10.854;2024-03-08T08:03:31;41.72;;;20.55;;
65896;SDS011;52677;50.898;10.854;2024-03-08T08:05:31;43.53;;;20.80;;
65896;SDS011;52677;50.898;10.854;2024-03-08T08:07:35;40.95;;;20.42;;
65896;SDS011;52677;50.898;10.854;2024-03-08T08:09:36;54.65;;;24.40;;
65896;SDS011;52677;50.898;10.854;2024-03-08T08:11:37;70.25;;;27.15;;
65896;SDS011;52677;50.898;10.854;2024-03-08T08:13:38;57.78;;;24.75;;
65896;SDS011;52677;50.898;10.854;2024-03-08T08:15:39;55.25;;;26.05;;
65896;SDS011;52677;50.898;10.854;2024-03-08T08:17:39;56.53;;;26.90;;
65896;SDS011;52677;50.898;10.854;2024-03-08T08:19:42;49.80;;;24.67;;
65896;SDS011;52677;50.898;10.854;2024-03-08T08:21:43;59.15;;;26.17;;
65896;SDS011;52677;50.898;10.854;2024-03-08T08:23:43;78.25;;;29.80;;
65896;SDS011;52677;50.898;10.854;2024-03-08T08:25:43;60.97;;;25.67;;
65896;SDS011;52677;50.898;10.854;2024-03-08T08:27:44;54.10;;;24.42;;
65896;SDS011;52677;50.898;10.854;2024-03-08T08:29:44;55.13;;;24.90;;
65896;SDS011;52677;50.898;10.854;2024-03-08T08:31:46;53.20;;;24.80;;
65896;SDS011;52677;50.898;10.854;2024-03-08T08:33:47;48.25;;;23.10;;
65896;SDS011;52677;50.898;10.854;2024-03-08T08:35:48;44.50;;;21.77;;
65896;SDS011;52677;50.898;10.854;2024-03-08T08:37:53;45.80;;;21.00;;
65896;SDS011;52677;50.898;10.854;2024-03-08T08:39:54;50.88;;;25.63;;
65896;SDS011;52677;50.898;10.854;2024-03-08T08:41:54;54.08;;;29.67;;
65896;SDS011;52677;50.898;10.854;2024-03-08T08:43:54;54.30;;;28.98;;
65896;SDS011;52677;50.898;10.854;2024-03-08T08:45:54;50.92;;;24.35;;
65896;SDS011;52677;50.898;10.854;2024-03-08T08:47:55;55.85;;;25.15;;
65896;SDS011;52677;50.898;10.854;2024-03-08T08:49:56;46.88;;;23.33;;
65896;SDS011;52677;50.898;10.854;2024-03-08T08:51:56;45.78;;;22.35;;
65896;SDS011;52677;50.898;10.854;2024-03-08T08:53:58;43.85;;;22.23;;
65896;SDS011;52677;50.898;10.854;2024-03-08T08:55:58;46.33;;;22.15;;
65896;SDS011;52677;50.898;10.854;2024-03-08T08:58:01;46.78;;;21.40;;
65896;SDS011;52677;50.898;10.854;2024-03-08T09:00:03;44.03;;;20.20;;
65896;SDS011;52677;50.898;10.854;2024-03-08T09:02:07;44.63;;;21.95;;
65896;SDS011;52677;50.898;10.854;2024-03-08T09:04:08;41.65;;;21.85;;
65896;SDS011;52677;50.898;10.854;2024-03-08T09:06:11;43.05;;;21.15;;
65896;SDS011;52677;50.898;10.854;2024-03-08T09:08:11;43.55;;;21.50;;
65896;SDS011;52677;50.898;10.854;2024-03-08T09:10:13;48.13;;;20.98;;
65896;SDS011;52677;50.898;10.854;2024-03-08T09:12:14;48.88;;;22.55;;
65896;SDS011;52677;50.898;10.854;2024-03-08T09:14:14;43.22;;;21.90;;
65896;SDS011;52677;50.898;10.854;2024-03-08T09:16:15;46.97;;;21.13;;
65896;SDS011;52677;50.898;10.854;2024-03-08T09:18:16;40.45;;;19.95;;
65896;SDS011;52677;50.898;10.854;2024-03-08T09:20:16;39.58;;;18.85;;
65896;SDS011;52677;50.898;10.854;2024-03-08T09:22:17;43.47;;;20.27;;
65896;SDS011;52677;50.898;10.854;2024-03-08T09:24:18;36.58;;;18.08;;
65896;SDS011;52677;50.898;10.854;2024-03-08T09:26:18;39.85;;;18.65;;
65896;SDS011;52677;50.898;10.854;2024-03-08T09:28:19;35.38;;;16.83;;
65896;SDS011;52677;50.898;10.854;2024-03-08T09:30:19;42.65;;;19.45;;
65896;SDS011;52677;50.898;10.854;2024-03-08T09:32:21;30.10;;;16.00;;
65896;SDS011;52677;50.898;10.854;2024-03-08T09:34:22;32.95;;;16.75;;
65896;SDS011;52677;50.898;10.854;2024-03-08T09:36:23;32.50;;;14.90;;
65896;SDS011;52677;50.898;10.854;2024-03-08T09:38:23;30.02;;;14.60;;
65896;SDS011;52677;50.898;10.854;2024-03-08T09:40:24;31.50;;;15.13;;
65896;SDS011;52677;50.898;10.854;2024-03-08T09:42:26;30.13;;;15.48;;
65896;SDS011;52677;50.898;10.854;2024-03-08T09:44:26;29.25;;;15.27;;
65896;SDS011;52677;50.898;10.854;2024-03-08T09:46:28;28.88;;;15.05;;
65896;SDS011;52677;50.898;10.854;2024-03-08T09:48:29;27.20;;;14.68;;
65896;SDS011;52677;50.898;10.854;2024-03-08T09:50:29;29.80;;;14.73;;
65896;SDS011;52677;50.898;10.854;2024-03-08T09:52:30;26.08;;;13.68;;
65896;SDS011;52677;50.898;10.854;2024-03-08T09:54:32;25.70;;;13.20;;
65896;SDS011;52677;50.898;10.854;2024-03-08T09:56:33;27.92;;;13.15;;
65896;SDS011;52677;50.898;10.854;2024-03-08T09:58:35;26.25;;;13.35;;
65896;SDS011;52677;50.898;10.854;2024-03-08T10:00:35;30.98;;;14.70;;
65896;SDS011;52677;50.898;10.854;2024-03-08T10:02:36;30.00;;;13.27;;
65896;SDS011;52677;50.898;10.854;2024-03-08T10:04:36;29.13;;;13.18;;
65896;SDS011;52677;50.898;10.854;2024-03-08T10:06:37;26.92;;;13.13;;
65896;SDS011;52677;50.898;10.854;2024-03-08T10:08:37;28.67;;;15.25;;
65896;SDS011;52677;50.898;10.854;2024-03-08T10:10:37;27.85;;;13.70;;
65896;SDS011;52677;50.898;10.854;2024-03-08T10:12:38;29.90;;;14.02;;
65896;SDS011;52677;50.898;10.854;2024-03-08T10:14:39;25.92;;;14.35;;
65896;SDS011;52677;50.898;10.854;2024-03-08T10:16:41;23.73;;;13.85;;
65896;SDS011;52677;50.898;10.854;2024-03-08T10:18:41;24.35;;;13.40;;
65896;SDS011;52677;50.898;10.854;2024-03-08T10:20:42;26.27;;;13.80;;
65896;SDS011;52677;50.898;10.854;2024-03-08T10:22:43;27.73;;;13.25;;
65896;SDS011;52677;50.898;10.854;2024-03-08T10:24:45;28.35;;;14.40;;
65896;SDS011;52677;50.898;10.854;2024-03-08T10:26:51;26.95;;;14.50;;
65896;SDS011;52677;50.898;10.854;2024-03-08T10:29:04;26.73;;;13.68;;
65896;SDS011;52677;50.898;10.854;2024-03-08T10:31:04;27.55;;;15.77;;
65896;SDS011;52677;50.898;10.854;2024-03-08T10:33:05;27.00;;;14.65;;
65896;SDS011;52677;50.898;10.854;2024-03-08T10:35:09;28.27;;;14.93;;
65896;SDS011;52677;50.898;10.854;2024-03-08T10:37:13;28.35;;;14.13;;
65896;SDS011;52677;50.898;10.854;2024-03-08T10:39:25;25.45;;;13.70;;
65896;SDS011;52677;50.898;10.854;2024-03-08T10:41:25;27.73;;;13.90;;
65896;SDS011;52677;50.898;10.854;2024-03-08T10:43:31;29.35;;;14.15;;
65896;SDS011;52677;50.898;10.854;2024-03-08T10:45:39;26.90;;;14.63;;
65896;SDS011;52677;50.898;10.854;2024-03-08T10:47:42;25.13;;;13.43;;
65896;SDS011;52677;50.898;10.854;2024-03-08T10:49:52;29.70;;;14.65;;
65896;SDS011;52677;50.898;10.854;2024-03-08T10:51:54;29.10;;;14.18;;
65896;SDS011;52677;50.898;10.854;2024-03-08T10:55:58;21.38;;;12.65;;
65896;SDS011;52677;50.898;10.854;2024-03-08T10:57:58;27.80;;;13.80;;
65896;SDS011;52677;50.898;10.854;2024-03-08T10:59:58;22.73;;;12.77;;
65896;SDS011;52677;50.898;10.854;2024-03-08T11:01:59;27.35;;;14.27;;
65896;SDS011;52677;50.898;10.854;2024-03-08T11:04:00;26.30;;;14.07;;
65896;SDS011;52677;50.898;10.854;2024-03-08T11:06:04;30.00;;;14.30;;
65896;SDS011;52677;50.898;10.854;2024-03-08T11:10:19;24.40;;;14.00;;
65896;SDS011;52677;50.898;10.854;2024-03-08T11:12:29;26.48;;;13.57;;
65896;SDS011;52677;50.898;10.854;2024-03-08T11:14:43;27.45;;;15.15;;
65896;SDS011;52677;50.898;10.854;2024-03-08T11:16:46;28.38;;;14.20;;
65896;SDS011;52677;50.898;10.854;2024-03-08T11:18:47;28.83;;;14.05;;
65896;SDS011;52677;50.898;10.854;2024-03-08T11:20:47;29.00;;;13.80;;
65896;SDS011;52677;50.898;10.854;2024-03-08T11:24:56;28.17;;;15.15;;
65896;SDS011;52677;50.898;10.854;2024-03-08T11:26:59;24.40;;;14.73;;
65896;SDS011;52677;50.898;10.854;2024-03-08T11:31:29;30.55;;;14.55;;
65896;SDS011;52677;50.898;10.854;2024-03-08T11:33:30;26.38;;;13.10;;
65896;SDS011;52677;50.898;10.854;2024-03-08T11:35:31;28.40;;;14.45;;
65896;SDS011;52677;50.898;10.854;2024-03-08T11:37:33;36.03;;;14.60;;
65896;SDS011;52677;50.898;10.854;2024-03-08T11:39:37;27.73;;;14.80;;
65896;SDS011;52677;50.898;10.854;2024-03-08T11:41:37;27.65;;;14.77;;
65896;SDS011;52677;50.898;10.854;2024-03-08T11:43:39;33.38;;;17.00;;
65896;SDS011;52677;50.898;10.854;2024-03-08T11:45:41;28.10;;;15.38;;
65896;SDS011;52677;50.898;10.854;2024-03-08T11:47:42;26.63;;;14.75;;